Time;durP1;ratioP1;P1;durP2;ratioP2;P2;SDS_P1;SDS_P2;PMS_P1;PMS_P2;Temp;Humidity;BMP_temperature;BMP_pressure;BME280_temperature;BME280_humidity;BME280_pressure;Samples;Min_cycle;Max_cycle;Signal;HPM_P1;HPM_P2
2023/07/25 00:02:23;;;;;;;4.65;3.80;;;;;;;;;;5071886;28;20389;-79
2023/07/25 00:04:49;;;;;;;3.92;3.63;;;;;;;;;;5072881;28;20371;-78
2023/07/25 00:07:15;;;;;;;4.25;3.85;;;;;;;;;;5072770;28;20368;-78
2023/07/25 00:09:41;;;;;;;5.00;4.50;;;;;;;;;;5072789;28;20467;-78
2023/07/25 00:12:07;;;;;;;4.10;3.70;;;;;;;;;;5054898;28;20809;-78
2023/07/25 00:14:34;;;;;;;4.57;4.18;;;;;;;;;;5054869;28;20380;-79
2023/07/25 00:17:00;;;;;;;4.68;4.10;;;;;;;;;;5072596;28;20376;-79
2023/07/25 00:19:26;;;;;;;5.50;4.80;;;;;;;;;;5072374;28;20388;-79
2023/07/25 00:21:52;;;;;;;5.50;5.00;;;;;;;;;;5072463;28;20461;-81
2023/07/25 00:24:18;;;;;;;6.30;5.00;;;;;;;;;;5072420;28;20411;-80
2023/07/25 00:26:44;;;;;;;10.40;6.22;;;;;;;;;;5071296;28;20407;-79
2023/07/25 00:29:10;;;;;;;7.68;5.93;;;;;;;;;;5071849;28;20462;-80
2023/07/25 00:31:36;;;;;;;7.60;6.25;;;;;;;;;;5071751;28;20421;-79
2023/07/25 00:34:04;;;;;;;3.50;3.20;;;;;;;;;;5072211;28;20400;-80
2023/07/25 00:36:30;;;;;;;6.05;4.32;;;;;;;;;;5071976;28;20777;-81
2023/07/25 00:38:56;;;;;;;4.77;3.67;;;;;;;;;;5072032;28;20479;-81
2023/07/25 00:41:22;;;;;;;3.27;2.97;;;;;;;;;;5071794;28;20453;-81
2023/07/25 00:43:48;;;;;;;3.00;2.60;;;;;;;;;;5071764;28;20399;-81
2023/07/25 00:46:15;;;;;;;2.47;2.28;;;;;;;;;;5072114;28;20372;-81
2023/07/25 00:48:41;;;;;;;2.80;2.50;;;;;;;;;;5072044;28;20380;-80
2023/07/25 00:51:07;;;;;;;2.45;2.25;;;;;;;;;;5071947;28;20382;-81
2023/07/25 00:53:33;;;;;;;3.03;2.13;;;;;;;;;;5071881;28;20899;-81
2023/07/25 00:56:01;;;;;;;2.67;2.47;;;;;;;;;;5071701;28;20430;-81
2023/07/25 00:58:27;;;;;;;3.75;2.60;;;;;;;;;;5071773;28;20436;-80
2023/07/25 01:01:01;;;;;;;2.40;2.03;;;;;;;;;;5071943;28;20396;-80
2023/07/25 01:03:27;;;;;;;4.05;2.30;;;;;;;;;;5072114;28;20377;-80
2023/07/25 01:05:53;;;;;;;4.00;2.30;;;;;;;;;;5071975;28;20475;-80
2023/07/25 01:08:19;;;;;;;4.20;2.30;;;;;;;;;;5072209;28;20429;-80
2023/07/25 01:10:45;;;;;;;2.45;2.20;;;;;;;;;;5071857;28;20409;-80
2023/07/25 01:13:11;;;;;;;2.15;1.95;;;;;;;;;;5071803;28;20749;-82
2023/07/25 01:15:37;;;;;;;2.40;2.20;;;;;;;;;;5071142;28;20451;-80
2023/07/25 01:18:03;;;;;;;2.53;2.20;;;;;;;;;;5072065;28;20380;-80
2023/07/25 01:20:30;;;;;;;2.78;2.17;;;;;;;;;;5071732;28;20406;-80
2023/07/25 01:22:56;;;;;;;2.63;1.90;;;;;;;;;;5071885;28;20441;-80
2023/07/25 01:25:22;;;;;;;3.67;2.05;;;;;;;;;;5072043;28;20417;-80
2023/07/25 01:27:48;;;;;;;2.35;2.15;;;;;;;;;;5071299;28;20376;-80
2023/07/25 01:30:14;;;;;;;2.30;2.10;;;;;;;;;;5071766;28;20418;-80
2023/07/25 01:32:40;;;;;;;2.67;2.25;;;;;;;;;;5071942;28;20920;-79
2023/07/25 01:35:06;;;;;;;2.88;2.40;;;;;;;;;;5071896;28;20376;-79
2023/07/25 01:37:32;;;;;;;2.38;2.10;;;;;;;;;;5071895;28;20384;-79
2023/07/25 01:39:58;;;;;;;2.65;2.40;;;;;;;;;;5071584;28;20398;-79
2023/07/25 01:42:24;;;;;;;2.72;2.15;;;;;;;;;;5071472;28;20407;-80
2023/07/25 01:44:50;;;;;;;2.43;2.23;;;;;;;;;;5071678;28;20475;-80
2023/07/25 01:47:16;;;;;;;2.65;2.38;;;;;;;;;;5071937;28;20391;-79
2023/07/25 01:49:42;;;;;;;2.92;2.25;;;;;;;;;;5071222;28;20384;-80
2023/07/25 01:52:08;;;;;;;2.58;2.25;;;;;;;;;;5070917;28;20402;-80
2023/07/25 01:54:34;;;;;;;4.25;2.50;;;;;;;;;;5071644;28;20463;-80
2023/07/25 01:57:00;;;;;;;2.92;2.20;;;;;;;;;;5071497;28;20457;-80
2023/07/25 01:59:28;;;;;;;2.75;2.30;;;;;;;;;;5072009;28;20425;-80
2023/07/25 02:01:54;;;;;;;2.75;2.50;;;;;;;;;;5071274;28;20880;-80
2023/07/25 02:04:20;;;;;;;2.90;2.67;;;;;;;;;;5071556;28;20457;-80
2023/07/25 02:06:46;;;;;;;3.17;2.40;;;;;;;;;;5071398;28;20924;-79
2023/07/25 02:09:12;;;;;;;2.78;2.58;;;;;;;;;;5071475;28;20418;-80
2023/07/25 02:11:38;;;;;;;2.95;2.40;;;;;;;;;;5071376;28;20462;-79
2023/07/25 02:14:04;;;;;;;3.00;2.70;;;;;;;;;;5071261;28;20848;-80
2023/07/25 02:16:30;;;;;;;2.92;2.63;;;;;;;;;;5071420;28;20383;-80
2023/07/25 02:18:56;;;;;;;2.67;2.42;;;;;;;;;;5071269;28;20411;-80
2023/07/25 02:21:22;;;;;;;2.93;2.63;;;;;;;;;;5071266;28;20497;-80
2023/07/25 02:23:48;;;;;;;3.50;2.55;;;;;;;;;;5071035;28;20383;-80
2023/07/25 02:26:14;;;;;;;4.03;3.40;;;;;;;;;;5072332;28;20383;-80
2023/07/25 02:28:40;;;;;;;3.47;3.17;;;;;;;;;;5074805;28;20372;-80
2023/07/25 02:31:06;;;;;;;3.95;3.55;;;;;;;;;;5056306;28;20521;-80
2023/07/25 02:33:32;;;;;;;4.15;3.75;;;;;;;;;;5074691;28;20454;-80
2023/07/25 02:35:57;;;;;;;5.00;4.20;;;;;;;;;;5074675;28;20388;-79
2023/07/25 02:38:24;;;;;;;4.28;3.88;;;;;;;;;;5074475;28;20376;-80
2023/07/25 02:40:50;;;;;;;3.88;3.58;;;;;;;;;;5074207;28;20481;-80
2023/07/25 02:43:16;;;;;;;5.22;4.50;;;;;;;;;;5071826;28;20428;-79
2023/07/25 02:45:42;;;;;;;4.17;3.80;;;;;;;;;;5071915;28;20372;-79
2023/07/25 02:48:08;;;;;;;4.28;3.67;;;;;;;;;;5070663;28;20919;-80
2023/07/25 02:50:34;;;;;;;4.90;4.50;;;;;;;;;;5072678;28;20425;-79
2023/07/25 02:53:00;;;;;;;5.45;4.95;;;;;;;;;;5071897;28;20388;-79
2023/07/25 02:55:26;;;;;;;4.75;4.25;;;;;;;;;;5071641;28;20371;-79
2023/07/25 02:57:52;;;;;;;4.75;4.35;;;;;;;;;;5072574;28;20383;-79
2023/07/25 03:00:18;;;;;;;5.28;4.40;;;;;;;;;;5070620;28;20746;-79
2023/07/25 03:02:44;;;;;;;4.90;4.40;;;;;;;;;;5072419;28;20368;-79
2023/07/25 03:05:10;;;;;;;5.00;4.50;;;;;;;;;;5069146;28;20885;-79
2023/07/25 03:07:36;;;;;;;7.95;6.13;;;;;;;;;;5072283;28;20379;-78
2023/07/25 03:10:03;;;;;;;7.13;6.53;;;;;;;;;;5053428;28;20392;-78
2023/07/25 03:12:29;;;;;;;7.03;6.43;;;;;;;;;;5071688;28;20383;-79
2023/07/25 03:14:55;;;;;;;7.40;6.70;;;;;;;;;;5065789;28;20391;-79
2023/07/25 03:17:21;;;;;;;7.97;7.20;;;;;;;;;;5070360;28;20410;-79
2023/07/25 03:19:47;;;;;;;6.13;5.63;;;;;;;;;;5065922;28;20845;-79
2023/07/25 03:22:13;;;;;;;7.13;6.45;;;;;;;;;;5070265;28;20428;-79
2023/07/25 03:24:39;;;;;;;6.75;6.03;;;;;;;;;;5068719;28;20414;-79
2023/07/25 03:27:05;;;;;;;7.60;5.78;;;;;;;;;;5071993;28;20825;-79
2023/07/25 03:29:31;;;;;;;5.88;5.38;;;;;;;;;;5040262;28;20416;-80
2023/07/25 03:31:57;;;;;;;5.65;5.15;;;;;;;;;;5053602;28;20407;-80
2023/07/25 03:34:24;;;;;;;6.75;6.15;;;;;;;;;;5053484;28;20809;-80
2023/07/25 03:36:50;;;;;;;6.43;5.90;;;;;;;;;;5053098;28;20374;-80
2023/07/25 03:39:16;;;;;;;6.22;5.72;;;;;;;;;;5053906;28;20386;-80
2023/07/25 03:41:42;;;;;;;8.27;6.55;;;;;;;;;;5039249;28;20400;-80
2023/07/25 03:44:08;;;;;;;6.47;5.88;;;;;;;;;;5063412;28;20389;-80
2023/07/25 03:46:34;;;;;;;6.80;6.20;;;;;;;;;;5035337;28;20457;-80
2023/07/25 03:49:00;;;;;;;6.25;5.75;;;;;;;;;;5035389;28;20540;-80
2023/07/25 03:51:26;;;;;;;6.13;5.60;;;;;;;;;;5053221;28;20607;-80
2023/07/25 03:53:52;;;;;;;6.60;6.10;;;;;;;;;;5053127;28;20384;-80
2023/07/25 03:56:18;;;;;;;7.03;6.43;;;;;;;;;;5052139;28;20374;-80
2023/07/25 03:58:44;;;;;;;8.17;6.70;;;;;;;;;;5052832;28;20385;-80
2023/07/25 04:01:10;;;;;;;7.70;6.90;;;;;;;;;;5052911;28;20404;-80
2023/07/25 04:03:36;;;;;;;7.63;6.93;;;;;;;;;;5052702;28;20377;-80
2023/07/25 04:06:01;;;;;;;7.13;6.00;;;;;;;;;;5053065;28;20453;-79
2023/07/25 04:08:27;;;;;;;5.80;5.30;;;;;;;;;;5052747;28;20388;-80
2023/07/25 04:10:53;;;;;;;6.35;5.75;;;;;;;;;;5052860;28;20424;-80
2023/07/25 04:13:19;;;;;;;5.87;5.37;;;;;;;;;;5052747;28;20484;-80
2023/07/25 04:15:45;;;;;;;6.00;5.50;;;;;;;;;;5052562;28;20389;-80
2023/07/25 04:18:11;;;;;;;6.10;5.60;;;;;;;;;;5052932;28;20381;-80
2023/07/25 04:20:37;;;;;;;7.28;5.82;;;;;;;;;;5052436;28;20905;-80
2023/07/25 04:23:03;;;;;;;7.25;6.15;;;;;;;;;;5052628;28;20386;-80
2023/07/25 04:25:29;;;;;;;7.00;6.30;;;;;;;;;;5050264;28;20377;-80
2023/07/25 04:27:55;;;;;;;5.80;5.30;;;;;;;;;;5066600;28;20852;-80
2023/07/25 04:30:21;;;;;;;5.70;5.20;;;;;;;;;;5052518;28;20431;-79
2023/07/25 04:32:47;;;;;;;5.75;4.65;;;;;;;;;;5051946;28;20381;-80
2023/07/25 04:35:13;;;;;;;5.82;5.30;;;;;;;;;;5052307;28;20395;-80
2023/07/25 04:37:39;;;;;;;5.07;4.60;;;;;;;;;;5052461;28;20377;-79
2023/07/25 04:40:05;;;;;;;4.45;4.15;;;;;;;;;;5052131;28;20385;-80
2023/07/25 04:42:31;;;;;;;5.60;4.80;;;;;;;;;;5059035;28;20746;-80
2023/07/25 04:44:57;;;;;;;5.72;5.13;;;;;;;;;;5072170;28;20383;-80
2023/07/25 04:47:23;;;;;;;7.43;5.10;;;;;;;;;;5072250;28;20391;-80
2023/07/25 04:49:49;;;;;;;6.60;5.80;;;;;;;;;;5073373;28;20387;-80
2023/07/25 04:52:15;;;;;;;5.70;5.20;;;;;;;;;;5072582;28;20741;-80
2023/07/25 04:54:41;;;;;;;5.85;5.30;;;;;;;;;;5072198;28;20429;-80
2023/07/25 04:57:07;;;;;;;5.53;4.93;;;;;;;;;;5071993;28;20718;-80
2023/07/25 04:59:33;;;;;;;6.38;5.80;;;;;;;;;;5072079;28;20459;-80
2023/07/25 05:01:59;;;;;;;5.18;4.78;;;;;;;;;;5071732;28;20403;-80
2023/07/25 05:04:25;;;;;;;5.47;4.97;;;;;;;;;;5072088;28;20944;-80
2023/07/25 05:06:52;;;;;;;6.53;5.95;;;;;;;;;;5071875;28;20392;-80
2023/07/25 05:09:19;;;;;;;6.65;5.97;;;;;;;;;;5065811;28;20457;-80
2023/07/25 05:11:47;;;;;;;6.57;5.97;;;;;;;;;;5065300;28;20403;-80
2023/07/25 05:14:13;;;;;;;7.07;6.40;;;;;;;;;;5063058;28;20387;-80
2023/07/25 05:16:39;;;;;;;7.57;5.97;;;;;;;;;;5056530;28;20377;-79
2023/07/25 05:19:05;;;;;;;7.07;6.40;;;;;;;;;;5068523;28;20865;-79
2023/07/25 05:21:31;;;;;;;6.80;6.20;;;;;;;;;;5061170;28;20443;-79
2023/07/25 05:23:57;;;;;;;7.13;6.53;;;;;;;;;;5053733;28;20383;-80
2023/07/25 05:26:23;;;;;;;7.43;6.72;;;;;;;;;;5068193;28;20406;-80
2023/07/25 05:28:49;;;;;;;9.05;7.63;;;;;;;;;;5061578;28;20968;-80
2023/07/25 05:31:15;;;;;;;7.13;6.43;;;;;;;;;;5071631;28;20458;-80
2023/07/25 05:33:41;;;;;;;8.53;7.00;;;;;;;;;;5071677;28;20419;-80
2023/07/25 05:36:07;;;;;;;8.68;6.95;;;;;;;;;;5071715;28;20380;-80
2023/07/25 05:38:33;;;;;;;8.55;7.65;;;;;;;;;;5071672;28;20372;-80
2023/07/25 05:40:59;;;;;;;7.90;7.20;;;;;;;;;;5071617;28;20400;-80
2023/07/25 05:43:25;;;;;;;8.73;7.97;;;;;;;;;;5071189;28;20416;-80
2023/07/25 05:45:51;;;;;;;7.40;6.80;;;;;;;;;;5071721;28;20445;-80
2023/07/25 05:48:17;;;;;;;8.32;7.53;;;;;;;;;;5071463;28;20380;-81
2023/07/25 05:50:43;;;;;;;6.80;6.13;;;;;;;;;;5071583;28;20764;-82
2023/07/25 05:53:09;;;;;;;7.07;6.40;;;;;;;;;;5071402;28;20384;-80
2023/07/25 05:55:35;;;;;;;7.67;6.33;;;;;;;;;;5071636;28;20424;-80
2023/07/25 05:58:01;;;;;;;7.03;6.43;;;;;;;;;;5071488;28;20383;-80
2023/07/25 06:00:27;;;;;;;6.05;5.45;;;;;;;;;;5058376;28;20401;-81
2023/07/25 06:02:53;;;;;;;5.30;4.90;;;;;;;;;;5055186;28;20377;-80
2023/07/25 06:05:19;;;;;;;5.57;4.80;;;;;;;;;;5071422;28;20865;-79
2023/07/25 06:07:45;;;;;;;4.53;4.13;;;;;;;;;;5075259;28;20387;-79
2023/07/25 06:10:11;;;;;;;5.32;4.65;;;;;;;;;;5075056;28;20388;-79
2023/07/25 06:12:37;;;;;;;4.80;4.30;;;;;;;;;;5074215;28;20853;-79
2023/07/25 06:15:03;;;;;;;4.80;4.32;;;;;;;;;;5067506;28;20465;-79
2023/07/25 06:17:29;;;;;;;4.65;4.18;;;;;;;;;;5059028;28;20524;-79
2023/07/25 06:19:55;;;;;;;4.78;4.25;;;;;;;;;;5054794;28;20413;-80
2023/07/25 06:22:21;;;;;;;7.78;4.65;;;;;;;;;;5071258;28;20384;-80
2023/07/25 06:24:47;;;;;;;4.75;4.32;;;;;;;;;;5074922;28;20457;-80
2023/07/25 06:27:13;;;;;;;4.60;4.17;;;;;;;;;;5063878;28;20847;-81
2023/07/25 06:29:39;;;;;;;4.78;4.18;;;;;;;;;;5071444;28;20382;-81
2023/07/25 06:32:05;;;;;;;4.88;3.88;;;;;;;;;;5074668;28;20457;-81
2023/07/25 06:34:31;;;;;;;4.78;4.07;;;;;;;;;;5074622;28;20383;-82
2023/07/25 06:36:58;;;;;;;4.05;3.30;;;;;;;;;;5074688;28;20433;-79
2023/07/25 06:39:24;;;;;;;5.22;3.20;;;;;;;;;;5059372;28;20464;-80
2023/07/25 06:41:50;;;;;;;3.67;3.35;;;;;;;;;;5073390;28;20439;-79
2023/07/25 06:44:16;;;;;;;6.10;3.17;;;;;;;;;;5074996;28;20384;-80
2023/07/25 06:46:42;;;;;;;3.90;2.85;;;;;;;;;;5074641;28;20928;-79
2023/07/25 06:49:07;;;;;;;4.30;2.75;;;;;;;;;;5074738;28;20406;-80
2023/07/25 06:51:33;;;;;;;3.72;3.00;;;;;;;;;;5074467;28;20375;-79
2023/07/25 06:53:59;;;;;;;6.28;3.10;;;;;;;;;;5056860;28;20470;-80
2023/07/25 06:56:25;;;;;;;3.27;2.97;;;;;;;;;;5074580;28;20948;-80
2023/07/25 06:58:51;;;;;;;3.30;3.00;;;;;;;;;;5074148;28;20392;-80
2023/07/25 07:01:17;;;;;;;4.28;3.40;;;;;;;;;;5074712;28;20398;-78
2023/07/25 07:03:43;;;;;;;3.17;2.67;;;;;;;;;;5074068;28;20379;-78
2023/07/25 07:06:09;;;;;;;4.55;3.20;;;;;;;;;;5074341;28;20376;-78
2023/07/25 07:08:35;;;;;;;2.90;2.70;;;;;;;;;;5074169;28;20864;-78
2023/07/25 07:11:01;;;;;;;3.00;2.80;;;;;;;;;;5056186;28;20421;-78
2023/07/25 07:13:27;;;;;;;3.63;2.97;;;;;;;;;;5065510;28;20385;-79
2023/07/25 07:15:53;;;;;;;3.28;2.80;;;;;;;;;;5073308;28;20383;-79
2023/07/25 07:18:19;;;;;;;2.80;2.50;;;;;;;;;;5074018;28;20391;-79
2023/07/25 07:20:47;;;;;;;3.05;2.67;;;;;;;;;;5070979;28;20391;-79
2023/07/25 07:23:13;;;;;;;4.03;2.60;;;;;;;;;;5068362;28;20794;-78
2023/07/25 07:25:39;;;;;;;2.58;2.38;;;;;;;;;;5057894;28;20414;-79
2023/07/25 07:28:05;;;;;;;5.07;2.47;;;;;;;;;;5035521;28;20428;-78
2023/07/25 07:30:31;;;;;;;3.10;2.30;;;;;;;;;;5063596;28;20384;-79
2023/07/25 07:32:57;;;;;;;4.80;2.50;;;;;;;;;;5073466;28;20789;-81
2023/07/25 07:35:23;;;;;;;3.13;1.90;;;;;;;;;;5073606;28;20376;-78
2023/07/25 07:37:49;;;;;;;2.65;1.92;;;;;;;;;;5073454;28;20387;-78
2023/07/25 07:40:15;;;;;;;2.15;1.95;;;;;;;;;;5073871;28;20923;-79
2023/07/25 07:42:41;;;;;;;3.15;1.90;;;;;;;;;;5073145;28;20400;-78
2023/07/25 07:45:08;;;;;;;3.07;1.90;;;;;;;;;;5073304;28;20383;-81
2023/07/25 07:47:34;;;;;;;3.65;1.80;;;;;;;;;;5073343;28;20895;-80
2023/07/25 07:50:00;;;;;;;2.58;1.88;;;;;;;;;;5073182;28;20368;-80
2023/07/25 07:52:26;;;;;;;2.00;1.85;;;;;;;;;;5073411;28;20372;-80
2023/07/25 07:54:52;;;;;;;4.78;1.92;;;;;;;;;;5073245;28;20734;-80
2023/07/25 07:57:18;;;;;;;2.00;1.80;;;;;;;;;;5055169;28;20897;-81
2023/07/25 07:59:44;;;;;;;2.70;1.50;;;;;;;;;;5073152;28;20380;-80
2023/07/25 08:02:10;;;;;;;2.05;1.70;;;;;;;;;;5072936;28;20399;-80
2023/07/25 08:04:36;;;;;;;3.60;2.03;;;;;;;;;;5065576;28;20460;-81
2023/07/25 08:07:02;;;;;;;1.95;1.60;;;;;;;;;;5054608;28;20452;-80
2023/07/25 08:09:28;;;;;;;2.65;1.60;;;;;;;;;;5053141;28;20439;-80
2023/07/25 08:11:54;;;;;;;2.35;1.48;;;;;;;;;;5052835;28;20465;-80
2023/07/25 08:14:20;;;;;;;2.88;1.60;;;;;;;;;;5059609;28;20448;-80
2023/07/25 08:16:46;;;;;;;3.38;1.70;;;;;;;;;;5072910;28;20396;-80
2023/07/25 08:19:12;;;;;;;2.33;1.45;;;;;;;;;;5072627;28;20384;-80
2023/07/25 08:21:38;;;;;;;1.97;1.50;;;;;;;;;;5061922;28;20501;-80
2023/07/25 08:24:04;;;;;;;4.70;1.50;;;;;;;;;;5050724;28;20380;-80
2023/07/25 08:26:30;;;;;;;3.03;1.48;;;;;;;;;;5067762;28;20374;-79
2023/07/25 08:28:56;;;;;;;3.83;1.38;;;;;;;;;;5061831;28;20376;-79
2023/07/25 08:31:22;;;;;;;3.80;1.60;;;;;;;;;;5037689;28;20726;-79
2023/07/25 08:33:48;;;;;;;3.17;1.40;;;;;;;;;;5072520;28;20376;-79
2023/07/25 08:36:14;;;;;;;4.37;1.70;;;;;;;;;;5072436;28;20440;-79
2023/07/25 08:38:41;;;;;;;2.55;1.25;;;;;;;;;;5072553;28;20380;-80
2023/07/25 08:41:12;;;;;;;2.55;1.63;;;;;;;;;;5072539;28;20448;-80
2023/07/25 08:43:39;;;;;;;2.03;1.40;;;;;;;;;;5071966;28;20495;-80
2023/07/25 08:46:09;;;;;;;2.97;1.70;;;;;;;;;;5072700;28;20384;-79
2023/07/25 08:48:39;;;;;;;2.70;1.60;;;;;;;;;;5072235;28;20379;-80
2023/07/25 08:51:13;;;;;;;2.67;1.60;;;;;;;;;;5072265;28;20380;-79
2023/07/25 08:53:42;;;;;;;2.20;1.50;;;;;;;;;;5072155;28;20437;-79
2023/07/25 08:56:08;;;;;;;2.88;1.65;;;;;;;;;;5072730;28;20376;-80
2023/07/25 08:58:35;;;;;;;2.35;1.50;;;;;;;;;;5071963;28;20414;-79
2023/07/25 09:01:01;;;;;;;1.80;1.13;;;;;;;;;;5072252;28;20404;-79
2023/07/25 09:03:28;;;;;;;1.50;1.30;;;;;;;;;;5072058;28;20737;-80
2023/07/25 09:05:54;;;;;;;3.05;1.65;;;;;;;;;;5072291;28;20383;-79
2023/07/25 09:08:20;;;;;;;4.00;1.50;;;;;;;;;;5072265;28;20376;-80
2023/07/25 09:10:46;;;;;;;3.53;1.47;;;;;;;;;;5054399;28;20402;-80
2023/07/25 09:13:12;;;;;;;2.50;1.10;;;;;;;;;;5066141;28;20900;-80
2023/07/25 09:15:39;;;;;;;2.45;1.20;;;;;;;;;;5064557;28;20397;-80
2023/07/25 09:18:05;;;;;;;2.22;1.20;;;;;;;;;;5061477;28;20414;-80
2023/07/25 09:20:32;;;;;;;2.80;1.40;;;;;;;;;;5072005;28;20514;-80
2023/07/25 09:22:58;;;;;;;2.42;1.40;;;;;;;;;;5065165;28;20374;-80
2023/07/25 09:25:27;;;;;;;2.40;1.20;;;;;;;;;;5065554;28;20406;-80
2023/07/25 09:27:54;;;;;;;2.85;1.20;;;;;;;;;;5057873;28;20374;-80
2023/07/25 09:30:20;;;;;;;2.42;1.15;;;;;;;;;;5072119;28;20380;-80
2023/07/25 09:32:49;;;;;;;2.58;1.27;;;;;;;;;;5048077;28;20380;-81
2023/07/25 09:35:16;;;;;;;1.80;1.17;;;;;;;;;;5073185;28;20733;-81
2023/07/25 09:37:42;;;;;;;2.20;1.13;;;;;;;;;;5076078;28;20376;-81
2023/07/25 09:40:11;;;;;;;2.03;1.15;;;;;;;;;;5075587;28;20407;-79
2023/07/25 09:42:41;;;;;;;1.87;1.13;;;;;;;;;;5075642;28;20524;-79
2023/07/25 09:45:08;;;;;;;1.83;1.02;;;;;;;;;;5057693;28;20386;-80
2023/07/25 09:47:36;;;;;;;2.30;1.10;;;;;;;;;;5075843;28;20411;-80
2023/07/25 09:50:04;;;;;;;1.67;1.17;;;;;;;;;;5075732;28;20375;-80
2023/07/25 09:52:38;;;;;;;1.90;1.03;;;;;;;;;;5057622;28;20372;-81
2023/07/25 09:55:04;;;;;;;2.35;1.23;;;;;;;;;;5057532;28;20893;-81
2023/07/25 09:57:31;;;;;;;2.63;1.30;;;;;;;;;;5075523;28;20376;-81
2023/07/25 09:59:58;;;;;;;2.60;1.20;;;;;;;;;;5075379;28;20461;-80
2023/07/25 10:02:25;;;;;;;1.90;1.30;;;;;;;;;;5057517;28;20489;-81
2023/07/25 10:04:51;;;;;;;4.20;1.20;;;;;;;;;;5073476;28;20391;-81
2023/07/25 10:07:18;;;;;;;1.50;1.10;;;;;;;;;;5054877;28;20388;-81
2023/07/25 10:09:47;;;;;;;2.40;1.30;;;;;;;;;;5066079;28;20743;-80
2023/07/25 10:12:13;;;;;;;3.55;1.27;;;;;;;;;;5074927;28;20375;-81
2023/07/25 10:14:39;;;;;;;1.63;0.93;;;;;;;;;;5066558;28;20380;-80
2023/07/25 10:17:09;;;;;;;1.77;1.17;;;;;;;;;;5057990;28;20427;-81
2023/07/25 10:19:51;;;;;;;2.22;1.20;;;;;;;;;;5075055;28;20371;-80
2023/07/25 10:22:17;;;;;;;1.92;1.10;;;;;;;;;;5075035;28;20782;-82
2023/07/25 10:24:43;;;;;;;1.60;0.93;;;;;;;;;;5075106;28;20380;-82
2023/07/25 10:27:12;;;;;;;1.23;1.10;;;;;;;;;;5064723;28;20377;-83
2023/07/25 10:29:46;;;;;;;3.15;1.25;;;;;;;;;;5071519;28;20384;-82
2023/07/25 10:32:13;;;;;;;1.95;1.20;;;;;;;;;;5068088;28;20422;-82
2023/07/25 10:35:01;;;;;;;1.58;1.05;;;;;;;;;;5074721;28;20384;-82
2023/07/25 10:37:28;;;;;;;1.73;1.10;;;;;;;;;;5074824;28;20442;-82
2023/07/25 10:40:12;;;;;;;1.38;1.10;;;;;;;;;;5074594;28;20865;-82
2023/07/25 10:42:43;;;;;;;1.48;1.08;;;;;;;;;;5074534;28;20427;-82
2023/07/25 10:45:22;;;;;;;1.57;1.00;;;;;;;;;;5066757;28;20393;-81
2023/07/25 10:47:51;;;;;;;4.00;1.10;;;;;;;;;;5054911;28;20377;-81
2023/07/25 10:50:19;;;;;;;1.30;1.08;;;;;;;;;;5054922;28;20392;-81
2023/07/25 10:52:45;;;;;;;1.40;1.00;;;;;;;;;;5057875;28;20392;-81
2023/07/25 10:55:11;;;;;;;1.90;1.10;;;;;;;;;;5056036;28;20957;-81
2023/07/25 10:57:38;;;;;;;1.88;1.20;;;;;;;;;;5056868;28;20797;-81
2023/07/25 11:00:05;;;;;;;2.37;1.20;;;;;;;;;;5055194;28;20421;-81
2023/07/25 11:02:32;;;;;;;2.20;1.20;;;;;;;;;;5054464;28;20385;-81
2023/07/25 11:05:13;;;;;;;2.30;1.05;;;;;;;;;;5053909;28;20389;-82
2023/07/25 11:07:45;;;;;;;1.77;1.17;;;;;;;;;;5055076;28;20400;-83
2023/07/25 11:10:18;;;;;;;2.35;1.08;;;;;;;;;;5054583;28;20385;-82
2023/07/25 11:12:47;;;;;;;1.60;0.82;;;;;;;;;;5037218;28;20374;-80
2023/07/25 11:15:13;;;;;;;1.40;0.90;;;;;;;;;;5053976;28;20424;-82
2023/07/25 11:17:40;;;;;;;1.40;0.80;;;;;;;;;;5054410;28;20374;-84
2023/07/25 11:20:13;;;;;;;1.63;0.93;;;;;;;;;;5036265;28;20381;-82
2023/07/25 11:22:40;;;;;;;2.10;0.85;;;;;;;;;;5051617;28;20896;-79
2023/07/25 11:25:07;;;;;;;1.60;0.70;;;;;;;;;;5053479;28;20413;-82
2023/07/25 11:27:33;;;;;;;2.50;0.75;;;;;;;;;;5053648;28;20428;-82
2023/07/25 11:30:08;;;;;;;1.15;0.70;;;;;;;;;;5073368;28;20845;-82
2023/07/25 11:32:34;;;;;;;1.35;0.70;;;;;;;;;;5073879;28;20380;-82
2023/07/25 11:35:01;;;;;;;1.30;0.60;;;;;;;;;;5073621;28;20383;-82
2023/07/25 11:37:27;;;;;;;0.90;0.60;;;;;;;;;;5073614;28;20387;-82
2023/07/25 11:39:53;;;;;;;1.05;0.50;;;;;;;;;;5058402;28;20391;-83
2023/07/25 11:42:19;;;;;;;0.85;0.47;;;;;;;;;;5073481;28;20469;-82
2023/07/25 11:44:45;;;;;;;0.90;0.60;;;;;;;;;;5073569;28;20753;-82
2023/07/25 11:47:11;;;;;;;0.70;0.60;;;;;;;;;;5073620;28;20395;-81
2023/07/25 11:49:37;;;;;;;0.90;0.40;;;;;;;;;;5073473;28;20412;-82
2023/07/25 11:52:04;;;;;;;1.52;0.57;;;;;;;;;;5073313;28;20384;-81
2023/07/25 11:54:30;;;;;;;2.50;0.60;;;;;;;;;;5073670;28;20738;-82
2023/07/25 11:56:56;;;;;;;0.80;0.50;;;;;;;;;;5073129;28;20384;-81
2023/07/25 11:59:22;;;;;;;0.45;0.43;;;;;;;;;;5072998;28;20952;-80
2023/07/25 12:01:48;;;;;;;0.43;0.40;;;;;;;;;;5066773;28;20409;-81
2023/07/25 12:04:16;;;;;;;0.90;0.60;;;;;;;;;;5060095;28;20403;-81
2023/07/25 12:06:43;;;;;;;0.80;0.52;;;;;;;;;;5073124;28;20383;-79
2023/07/25 12:09:09;;;;;;;0.80;0.60;;;;;;;;;;5072874;28;20787;-79
2023/07/25 12:11:42;;;;;;;0.90;0.60;;;;;;;;;;5072974;28;20372;-79
2023/07/25 12:14:10;;;;;;;0.57;0.50;;;;;;;;;;5063916;28;20787;-79
2023/07/25 12:16:37;;;;;;;1.80;0.60;;;;;;;;;;5073230;28;20380;-80
2023/07/25 12:19:05;;;;;;;0.70;0.40;;;;;;;;;;5052454;28;20409;-81
2023/07/25 12:21:34;;;;;;;0.77;0.50;;;;;;;;;;5041682;28;20402;-80
2023/07/25 12:24:02;;;;;;;1.20;0.60;;;;;;;;;;5051021;28;20860;-79
2023/07/25 12:26:28;;;;;;;0.70;0.60;;;;;;;;;;5068294;28;20807;-78
2023/07/25 12:28:58;;;;;;;1.20;0.73;;;;;;;;;;5063131;28;20427;-79
2023/07/25 12:31:28;;;;;;;0.90;0.60;;;;;;;;;;5072393;28;20383;-81
2023/07/25 12:33:54;;;;;;;1.67;0.60;;;;;;;;;;5054484;28;20391;-80
2023/07/25 12:36:26;;;;;;;1.10;0.50;;;;;;;;;;5058360;28;20381;-80
2023/07/25 12:38:52;;;;;;;1.10;0.60;;;;;;;;;;5072791;28;20382;-80
2023/07/25 12:41:18;;;;;;;0.60;0.50;;;;;;;;;;5059060;28;20405;-80
2023/07/25 12:43:44;;;;;;;1.63;0.60;;;;;;;;;;5072167;28;20406;-80
2023/07/25 12:46:10;;;;;;;0.95;0.70;;;;;;;;;;5072493;28;20475;-80
2023/07/25 12:48:36;;;;;;;1.30;0.60;;;;;;;;;;5072158;28;20393;-79
2023/07/25 12:51:02;;;;;;;1.33;0.50;;;;;;;;;;5072393;28;20860;-80
2023/07/25 12:53:28;;;;;;;0.75;0.60;;;;;;;;;;5072155;28;20390;-79
2023/07/25 12:55:54;;;;;;;1.73;0.63;;;;;;;;;;5072219;28;20407;-79
2023/07/25 12:58:24;;;;;;;1.27;0.73;;;;;;;;;;5072159;28;20462;-80
2023/07/25 13:00:52;;;;;;;0.70;0.60;;;;;;;;;;5072108;28;20400;-80
2023/07/25 13:03:25;;;;;;;0.90;0.60;;;;;;;;;;5072178;28;20376;-80
2023/07/25 13:05:51;;;;;;;1.40;0.60;;;;;;;;;;5071058;28;20399;-79
2023/07/25 13:08:18;;;;;;;1.58;0.50;;;;;;;;;;5072064;28;20462;-80
2023/07/25 13:10:44;;;;;;;0.50;0.50;;;;;;;;;;5053424;28;20737;-79
2023/07/25 13:13:10;;;;;;;1.00;0.68;;;;;;;;;;5072154;28;20780;-80
2023/07/25 13:15:36;;;;;;;6.22;1.00;;;;;;;;;;5071912;28;20384;-81
2023/07/25 13:18:20;;;;;;;5.05;1.23;;;;;;;;;;5072129;28;20410;-81
2023/07/25 13:20:46;;;;;;;6.60;1.90;;;;;;;;;;5053487;28;20746;-80
2023/07/25 13:23:13;;;;;;;2.05;1.20;;;;;;;;;;5071904;28;20376;-79
2023/07/25 13:25:40;;;;;;;2.25;1.05;;;;;;;;;;5071851;28;20382;-80
2023/07/25 13:28:06;;;;;;;1.77;0.88;;;;;;;;;;5053128;28;20369;-80
2023/07/25 13:30:32;;;;;;;1.17;0.77;;;;;;;;;;5071819;28;20394;-80
2023/07/25 13:32:58;;;;;;;1.48;0.68;;;;;;;;;;5071640;28;20741;-80
2023/07/25 13:35:24;;;;;;;2.42;0.80;;;;;;;;;;5070936;28;20403;-80
2023/07/25 13:37:50;;;;;;;1.17;0.80;;;;;;;;;;5071738;28;20384;-80
2023/07/25 13:40:16;;;;;;;3.00;0.90;;;;;;;;;;5071732;28;20375;-79
2023/07/25 13:42:42;;;;;;;2.45;1.00;;;;;;;;;;5071499;28;20427;-79
2023/07/25 13:45:09;;;;;;;2.10;0.70;;;;;;;;;;5071629;28;20376;-80
2023/07/25 13:47:38;;;;;;;1.67;0.95;;;;;;;;;;5053721;28;20376;-80
2023/07/25 13:50:04;;;;;;;1.20;0.80;;;;;;;;;;5053847;28;20372;-80
2023/07/25 13:52:30;;;;;;;1.20;1.00;;;;;;;;;;5071649;28;20391;-80
2023/07/25 13:54:57;;;;;;;1.23;0.77;;;;;;;;;;5071463;28;20383;-80
2023/07/25 13:57:23;;;;;;;1.40;0.60;;;;;;;;;;5071649;28;20437;-79
2023/07/25 13:59:49;;;;;;;2.38;0.80;;;;;;;;;;5071620;28;20857;-79
2023/07/25 14:02:18;;;;;;;1.40;0.70;;;;;;;;;;5071405;28;20474;-80
2023/07/25 14:04:44;;;;;;;1.90;0.80;;;;;;;;;;5052916;28;20415;-82
2023/07/25 14:07:10;;;;;;;1.20;0.70;;;;;;;;;;5071436;28;20861;-80
2023/07/25 14:09:36;;;;;;;0.98;0.68;;;;;;;;;;5071517;28;20379;-81
2023/07/25 14:12:02;;;;;;;0.90;0.60;;;;;;;;;;5070250;28;20396;-81
2023/07/25 14:14:28;;;;;;;0.60;0.50;;;;;;;;;;5071508;28;20813;-81
2023/07/25 14:16:54;;;;;;;1.20;0.60;;;;;;;;;;5071501;28;20386;-80
2023/07/25 14:19:20;;;;;;;0.98;0.70;;;;;;;;;;5071450;28;20388;-79
2023/07/25 14:21:46;;;;;;;1.40;0.95;;;;;;;;;;5073180;28;20410;-79
2023/07/25 14:24:12;;;;;;;3.92;2.70;;;;;;;;;;5074819;28;20376;-80
2023/07/25 14:26:43;;;;;;;1.70;1.20;;;;;;;;;;5056803;28;20386;-79
2023/07/25 14:29:09;;;;;;;1.23;0.70;;;;;;;;;;5056837;28;20466;-78
2023/07/25 14:31:35;;;;;;;2.05;0.80;;;;;;;;;;5057064;28;20805;-78
2023/07/25 14:34:01;;;;;;;0.90;0.80;;;;;;;;;;5074815;28;20433;-78
2023/07/25 14:36:27;;;;;;;0.70;0.70;;;;;;;;;;5074835;28;20379;-78
2023/07/25 14:38:53;;;;;;;0.88;0.60;;;;;;;;;;5056841;28;20891;-78
2023/07/25 14:41:19;;;;;;;0.88;0.60;;;;;;;;;;5073418;28;20498;-78